createdAt,value
2023-05-11T00:01:28.291Z,13.30
2023-05-11T00:03:57.068Z,13.30
2023-05-11T00:06:25.172Z,13.20
2023-05-11T00:08:53.080Z,13.00
2023-05-11T00:11:21.162Z,13.00
2023-05-11T00:13:49.051Z,12.90
2023-05-11T00:16:18.258Z,12.90
2023-05-11T00:18:46.158Z,12.90
2023-05-11T00:21:14.174Z,12.90
2023-05-11T00:23:41.982Z,12.90
2023-05-11T00:26:09.822Z,12.70
2023-05-11T00:28:37.736Z,12.70
2023-05-11T00:31:05.897Z,12.60
2023-05-11T00:33:35.143Z,12.60
2023-05-11T00:36:04.649Z,12.70
2023-05-11T00:38:32.802Z,12.70
2023-05-11T00:41:00.678Z,12.80
2023-05-11T00:43:28.525Z,12.80
2023-05-11T00:45:56.469Z,12.80
2023-05-11T00:48:24.325Z,12.70
2023-05-11T00:50:53.566Z,12.70
2023-05-11T00:53:21.753Z,12.70
2023-05-11T00:55:49.557Z,12.70
2023-05-11T00:58:17.580Z,12.80
2023-05-11T01:00:47.405Z,12.90
2023-05-11T01:03:16.245Z,13.00
2023-05-11T01:05:50.605Z,13.00
2023-05-11T01:08:25.857Z,13.10
2023-05-11T01:11:03.483Z,13.10
2023-05-11T01:13:35.661Z,13.00
2023-05-11T01:16:12.248Z,12.90
2023-05-11T01:18:43.052Z,13.00
2023-05-11T01:21:14.195Z,13.10
2023-05-11T01:24:21.074Z,13.10
2023-05-11T01:27:08.221Z,13.10
2023-05-11T01:30:03.724Z,13.30
2023-05-11T01:32:36.444Z,13.30
2023-05-11T01:35:09.397Z,13.30
2023-05-11T01:37:39.818Z,13.20
2023-05-11T01:40:13.283Z,13.10
2023-05-11T01:42:45.527Z,13.10
2023-05-11T01:45:15.311Z,13.10
2023-05-11T01:47:47.805Z,13.10
2023-05-11T01:50:18.106Z,13.10
2023-05-11T01:52:48.961Z,13.10
2023-05-11T01:55:20.452Z,13.10
2023-05-11T01:57:49.369Z,13.10
2023-05-11T02:00:18.580Z,13.00
2023-05-11T02:02:49.311Z,13.10
2023-05-11T02:05:19.686Z,13.10
2023-05-11T02:07:50.016Z,12.90
2023-05-11T02:10:19.659Z,12.90
2023-05-11T02:12:52.735Z,12.90
2023-05-11T02:15:22.626Z,13.00
2023-05-11T02:17:53.316Z,13.00
2023-05-11T02:20:21.865Z,12.90
2023-05-11T02:22:51.380Z,13.00
2023-05-11T02:25:19.751Z,13.00
2023-05-11T02:27:47.627Z,13.00
2023-05-11T02:30:15.775Z,13.00
2023-05-11T02:32:58.953Z,13.00
2023-05-11T02:35:30.686Z,12.80
2023-05-11T02:38:03.861Z,12.80
2023-05-11T02:40:34.715Z,12.70
2023-05-11T02:43:08.996Z,12.70
2023-05-11T02:45:38.683Z,12.70
2023-05-11T02:48:11.808Z,12.70
2023-05-11T02:50:41.861Z,12.70
2023-05-11T02:53:16.185Z,12.70
2023-05-11T02:55:44.094Z,12.70
2023-05-11T02:58:12.455Z,12.70
2023-05-11T03:00:40.506Z,12.70
2023-05-11T03:03:09.827Z,12.50
2023-05-11T03:05:37.855Z,12.40
2023-05-11T03:08:06.282Z,12.40
2023-05-11T03:10:34.304Z,12.20
2023-05-11T03:13:03.734Z,12.10
2023-05-11T03:15:32.096Z,12.20
2023-05-11T03:18:01.099Z,12.20
2023-05-11T03:20:31.560Z,12.10
2023-05-11T03:22:59.474Z,12.00
2023-05-11T03:25:28.990Z,12.00
2023-05-11T03:27:57.828Z,11.90
2023-05-11T03:30:27.350Z,11.90
2023-05-11T03:32:55.404Z,11.90
2023-05-11T03:35:26.428Z,11.90
2023-05-11T03:37:58.655Z,11.90
2023-05-11T03:40:27.880Z,11.80
2023-05-11T03:42:57.500Z,11.80
2023-05-11T03:45:28.486Z,11.80
2023-05-11T03:47:57.741Z,11.80
2023-05-11T03:50:26.176Z,11.80
2023-05-11T03:52:56.193Z,11.80
2023-05-11T03:55:24.237Z,11.80
2023-05-11T03:57:52.759Z,11.60
2023-05-11T04:00:20.871Z,11.60
2023-05-11T04:02:49.000Z,11.60
2023-05-11T04:05:18.402Z,11.60
2023-05-11T04:07:46.406Z,11.50
2023-05-11T04:10:15.713Z,11.50
2023-05-11T04:12:43.630Z,11.60
2023-05-11T04:15:12.226Z,11.50
2023-05-11T04:17:40.083Z,11.40
2023-05-11T04:20:09.301Z,11.50
2023-05-11T04:22:37.191Z,11.70
2023-05-11T04:25:05.657Z,11.90
2023-05-11T04:27:35.535Z,12.10
2023-05-11T04:30:03.448Z,12.20
2023-05-11T04:32:31.434Z,12.40
2023-05-11T04:34:59.316Z,12.50
2023-05-11T04:37:27.183Z,12.60
2023-05-11T04:39:55.000Z,12.60
2023-05-11T04:42:22.823Z,12.70
2023-05-11T04:44:54.225Z,12.80
2023-05-11T04:47:22.266Z,12.80
2023-05-11T04:49:50.846Z,12.90
2023-05-11T04:52:18.689Z,13.00
2023-05-11T04:54:46.539Z,13.10
2023-05-11T04:57:14.358Z,13.10
2023-05-11T04:59:42.252Z,13.20
2023-05-11T05:02:11.474Z,13.20
2023-05-11T05:04:39.291Z,13.30
2023-05-11T05:07:07.391Z,13.40
2023-05-11T05:09:35.189Z,13.50
2023-05-11T05:12:03.064Z,13.50
2023-05-11T05:14:31.263Z,13.50
2023-05-11T05:17:00.797Z,13.50
2023-05-11T05:19:30.024Z,13.60
2023-05-11T05:21:57.832Z,13.70
2023-05-11T05:24:25.807Z,13.80
2023-05-11T05:26:53.683Z,13.90
2023-05-11T05:29:21.533Z,13.70
2023-05-11T05:31:49.351Z,13.80
2023-05-11T05:34:17.229Z,13.90
2023-05-11T05:36:46.491Z,14.00
2023-05-11T05:39:14.289Z,14.00
2023-05-11T05:41:42.895Z,14.10
2023-05-11T05:44:10.837Z,14.10
2023-05-11T05:46:38.804Z,14.10
2023-05-11T05:49:06.714Z,14.00
2023-05-11T05:51:34.608Z,14.10
2023-05-11T05:54:27.526Z,14.10
2023-05-11T05:56:55.425Z,14.20
2023-05-11T05:59:24.298Z,14.10
2023-05-11T06:01:52.257Z,14.10
2023-05-11T06:04:20.247Z,14.10
2023-05-11T06:06:48.441Z,14.10
2023-05-11T06:09:17.677Z,14.20
2023-05-11T06:11:45.571Z,14.30
2023-05-11T06:14:13.419Z,14.30
2023-05-11T06:16:41.357Z,14.30
2023-05-11T06:19:09.454Z,14.40
2023-05-11T06:21:37.301Z,14.30
2023-05-11T06:24:05.743Z,14.20
2023-05-11T06:26:34.968Z,14.30
2023-05-11T06:29:02.891Z,14.30
2023-05-11T06:31:30.806Z,14.30
2023-05-11T06:33:58.703Z,14.30
2023-05-11T06:36:26.727Z,14.30
2023-05-11T06:38:54.553Z,14.10
2023-05-11T06:41:22.588Z,14.00
2023-05-11T06:43:53.082Z,14.10
2023-05-11T06:46:22.160Z,14.10
2023-05-11T06:48:50.478Z,14.00
2023-05-11T06:51:18.315Z,13.80
2023-05-11T06:53:46.339Z,13.80
2023-05-11T06:56:14.342Z,13.80
2023-05-11T06:58:42.186Z,13.90
2023-05-11T07:01:12.427Z,13.90
2023-05-11T07:03:40.350Z,14.00
2023-05-11T07:06:08.451Z,13.90
2023-05-11T07:08:36.326Z,14.00
2023-05-11T07:11:04.293Z,13.90
2023-05-11T07:13:32.266Z,13.90
2023-05-11T07:16:00.253Z,14.10
2023-05-11T07:18:29.603Z,14.30
2023-05-11T07:20:57.499Z,14.20
2023-05-11T07:23:25.655Z,14.10
2023-05-11T07:25:57.314Z,14.10
2023-05-11T07:28:25.233Z,14.10
2023-05-11T07:30:53.082Z,14.10
2023-05-11T07:33:28.864Z,14.30
2023-05-11T07:35:56.690Z,14.40
2023-05-11T07:38:24.526Z,14.70
2023-05-11T07:40:52.411Z,14.80
2023-05-11T07:43:20.242Z,14.70
2023-05-11T07:45:48.036Z,14.70
2023-05-11T07:48:16.377Z,14.80
2023-05-11T07:50:45.584Z,14.80
2023-05-11T07:53:13.437Z,14.80
2023-05-11T07:55:41.676Z,14.70
2023-05-11T07:58:09.656Z,14.80
2023-05-11T08:00:37.555Z,14.80
2023-05-11T08:03:06.539Z,14.70
2023-05-11T08:05:37.447Z,14.70
2023-05-11T08:08:06.901Z,14.70
2023-05-11T08:10:36.127Z,14.80
2023-05-11T08:13:03.978Z,14.80
2023-05-11T08:15:32.138Z,14.90
2023-05-11T08:18:00.443Z,15.00
2023-05-11T08:20:28.514Z,15.10
2023-05-11T08:22:56.346Z,15.20
2023-05-11T08:25:25.651Z,15.20
2023-05-11T08:27:53.484Z,15.20
2023-05-11T08:30:21.520Z,15.20
2023-05-11T08:32:58.406Z,15.20
2023-05-11T08:35:27.226Z,15.20
2023-05-11T08:37:55.080Z,15.20
2023-05-11T08:40:24.655Z,15.20
2023-05-11T08:42:57.058Z,15.30
2023-05-11T08:45:26.703Z,15.30
2023-05-11T08:47:54.944Z,15.40
2023-05-11T08:50:23.600Z,15.50
2023-05-11T08:52:51.452Z,15.60
2023-05-11T08:55:19.700Z,15.60
2023-05-11T08:57:49.697Z,15.70
2023-05-11T09:00:19.663Z,15.70
2023-05-11T09:02:48.405Z,15.50
2023-05-11T09:05:16.944Z,15.50
2023-05-11T09:07:48.020Z,15.50
2023-05-11T09:10:15.947Z,15.60
2023-05-11T09:12:43.796Z,15.70
2023-05-11T09:15:12.597Z,15.80
2023-05-11T09:17:41.853Z,15.90
2023-05-11T09:20:10.587Z,16.20
2023-05-11T09:22:44.301Z,16.20
2023-05-11T09:25:13.777Z,16.30
2023-05-11T09:27:46.249Z,16.10
2023-05-11T09:30:22.076Z,16.20
2023-05-11T09:32:55.955Z,16.20
2023-05-11T09:35:25.280Z,16.20
2023-05-11T09:38:02.378Z,16.20
2023-05-11T09:40:34.225Z,16.20
2023-05-11T09:43:03.565Z,16.10
2023-05-11T09:45:39.486Z,16.00
2023-05-11T09:48:16.107Z,15.80
2023-05-11T09:50:44.647Z,15.80
2023-05-11T09:53:12.631Z,15.80
2023-05-11T09:55:40.517Z,15.90
2023-05-11T09:58:09.748Z,16.00
2023-05-11T10:00:50.833Z,16.10
2023-05-11T10:03:20.475Z,16.30
2023-05-11T10:05:58.407Z,16.20
2023-05-11T10:08:30.186Z,16.20
2023-05-11T10:10:58.870Z,16.30
2023-05-11T10:13:27.394Z,16.50
2023-05-11T10:15:55.997Z,16.70
2023-05-11T10:18:25.718Z,16.70
2023-05-11T10:20:54.441Z,16.70
2023-05-11T10:23:22.553Z,16.70
2023-05-11T10:25:51.421Z,16.80
2023-05-11T10:28:20.007Z,16.90
2023-05-11T10:30:48.493Z,16.90
2023-05-11T10:33:17.791Z,16.60
2023-05-11T10:35:47.112Z,16.60
2023-05-11T10:38:16.289Z,16.60
2023-05-11T10:40:46.931Z,16.60
2023-05-11T10:43:37.668Z,16.60
2023-05-11T10:46:16.687Z,16.70
2023-05-11T10:48:59.893Z,16.80
2023-05-11T10:51:49.183Z,16.80
2023-05-11T10:54:42.911Z,16.80
2023-05-11T10:57:30.177Z,17.00
2023-05-11T11:00:35.687Z,17.00
2023-05-11T11:03:11.032Z,16.90
2023-05-11T11:05:39.330Z,16.90
2023-05-11T11:08:09.675Z,17.00
2023-05-11T11:10:39.405Z,17.10
2023-05-11T11:13:08.980Z,17.20
2023-05-11T11:16:13.783Z,17.20
2023-05-11T11:18:43.546Z,17.50
2023-05-11T11:21:15.550Z,17.50
2023-05-11T11:23:48.924Z,17.60
2023-05-11T11:26:18.992Z,17.70
2023-05-11T11:29:09.566Z,17.60
2023-05-11T11:31:38.244Z,17.70
2023-05-11T11:34:37.427Z,17.80
2023-05-11T11:37:06.673Z,17.90
2023-05-11T11:39:50.812Z,17.90
2023-05-11T11:42:20.480Z,17.60
2023-05-11T11:44:48.467Z,17.40
2023-05-11T11:47:17.373Z,17.30
2023-05-11T11:49:47.062Z,17.20
2023-05-11T11:52:15.916Z,17.10
2023-05-11T11:54:46.112Z,17.00
2023-05-11T11:57:50.987Z,16.90
2023-05-11T12:00:22.654Z,16.90
2023-05-11T12:02:51.088Z,17.00
2023-05-11T12:05:22.496Z,17.00
2023-05-11T12:07:52.427Z,17.10
2023-05-11T12:10:21.903Z,17.20
2023-05-11T12:12:54.869Z,17.00
2023-05-11T12:15:26.622Z,17.00
2023-05-11T12:17:54.695Z,17.00
2023-05-11T12:20:23.674Z,17.10
2023-05-11T12:22:52.170Z,17.20
2023-05-11T12:25:21.959Z,17.30
2023-05-11T12:27:55.111Z,17.40
2023-05-11T12:30:25.303Z,17.70
2023-05-11T12:35:25.643Z,17.80
2023-05-11T12:37:54.057Z,17.80
2023-05-11T12:40:21.889Z,17.70
2023-05-11T12:43:17.505Z,17.50
2023-05-11T12:45:47.107Z,17.40
2023-05-11T12:48:15.878Z,17.30
2023-05-11T12:50:47.080Z,17.40
2023-05-11T12:53:15.982Z,17.30
2023-05-11T12:55:44.000Z,17.30
2023-05-11T12:58:13.823Z,17.20
2023-05-11T13:00:54.144Z,17.10
2023-05-11T13:03:23.865Z,17.20
2023-05-11T13:05:52.183Z,17.20
2023-05-11T13:08:21.028Z,17.10
2023-05-11T13:10:49.129Z,17.10
2023-05-11T13:13:28.333Z,17.20
2023-05-11T13:15:57.788Z,17.10
2023-05-11T13:18:25.718Z,17.10
2023-05-11T13:21:06.434Z,17.00
2023-05-11T13:23:34.368Z,16.90
2023-05-11T13:26:02.326Z,17.00
2023-05-11T13:28:30.618Z,17.00
2023-05-11T13:31:02.141Z,17.10
2023-05-11T13:33:30.087Z,17.20
2023-05-11T13:35:57.927Z,17.30
2023-05-11T13:38:25.793Z,17.30
2023-05-11T13:40:53.631Z,17.50
2023-05-11T13:43:21.466Z,17.60
2023-05-11T13:45:49.312Z,17.40
2023-05-11T13:48:18.583Z,17.20
2023-05-11T13:50:46.455Z,17.10
2023-05-11T13:53:14.310Z,16.90
2023-05-11T13:55:42.949Z,16.50
2023-05-11T13:58:10.857Z,16.50
2023-05-11T14:00:40.007Z,16.50
2023-05-11T14:03:08.125Z,16.50
2023-05-11T14:05:39.255Z,16.70
2023-05-11T14:08:07.262Z,16.70
2023-05-11T14:10:35.083Z,16.60
2023-05-11T14:13:02.944Z,16.70
2023-05-11T14:15:30.831Z,16.60
2023-05-11T14:17:58.889Z,16.50
2023-05-11T14:20:26.804Z,16.50
2023-05-11T14:22:56.235Z,16.80
2023-05-11T14:25:24.593Z,16.60
2023-05-11T14:27:54.491Z,16.60
2023-05-11T14:30:22.743Z,16.50
2023-05-11T14:32:52.561Z,16.30
2023-05-11T14:35:21.279Z,16.40
2023-05-11T14:37:49.228Z,16.40
2023-05-11T14:40:18.412Z,16.50
2023-05-11T14:42:46.291Z,16.60
2023-05-11T14:45:14.135Z,16.60
2023-05-11T14:47:42.060Z,16.70
2023-05-11T14:50:11.229Z,16.80
2023-05-11T14:52:39.146Z,16.80
2023-05-11T14:55:07.928Z,16.80
2023-05-11T14:57:37.166Z,16.70
2023-05-11T15:00:05.790Z,16.70
2023-05-11T15:02:33.796Z,16.70
2023-05-11T15:05:04.823Z,16.70
2023-05-11T15:07:32.727Z,16.70
2023-05-11T15:10:01.625Z,16.80
2023-05-11T15:12:29.873Z,16.80
2023-05-11T15:14:59.148Z,16.80
2023-05-11T15:17:28.142Z,16.70
2023-05-11T15:19:56.194Z,16.60
2023-05-11T15:22:24.073Z,16.60
2023-05-11T15:24:51.927Z,16.40
2023-05-11T15:27:19.879Z,16.30
2023-05-11T15:29:47.819Z,16.30
2023-05-11T15:32:17.541Z,16.30
2023-05-11T15:34:58.421Z,16.20
2023-05-11T15:37:27.538Z,16.20
2023-05-11T15:39:56.132Z,16.30
2023-05-11T15:42:24.208Z,16.40
2023-05-11T15:44:52.102Z,16.50
2023-05-11T15:47:21.521Z,16.40
2023-05-11T15:49:49.478Z,16.30
2023-05-11T15:52:17.326Z,16.30
2023-05-11T15:54:45.178Z,16.30
2023-05-11T15:57:13.045Z,16.30
2023-05-11T15:59:40.996Z,16.30
2023-05-11T16:02:09.038Z,16.30
2023-05-11T16:04:38.191Z,16.50
2023-05-11T16:07:07.054Z,16.60
2023-05-11T16:09:34.981Z,16.70
2023-05-11T16:12:02.859Z,16.60
2023-05-11T16:14:31.010Z,16.40
2023-05-11T16:17:01.329Z,16.30
2023-05-11T16:19:29.768Z,16.30
2023-05-11T16:21:59.005Z,16.30
2023-05-11T16:24:26.998Z,16.30
2023-05-11T16:26:54.876Z,16.20
2023-05-11T16:29:22.866Z,16.30
2023-05-11T16:31:50.738Z,16.20
2023-05-11T16:34:19.337Z,16.10
2023-05-11T16:36:47.470Z,15.90
2023-05-11T16:39:16.662Z,15.80
2023-05-11T16:41:44.760Z,15.60
2023-05-11T16:44:12.587Z,15.60
2023-05-11T16:46:40.509Z,15.60
2023-05-11T16:49:08.408Z,15.60
2023-05-11T16:51:36.253Z,15.70
2023-05-11T16:54:04.130Z,15.80
2023-05-11T16:56:33.417Z,15.80
2023-05-11T16:59:01.266Z,15.80
2023-05-11T17:01:29.250Z,15.90
2023-05-11T17:03:57.263Z,15.80
2023-05-11T17:06:26.712Z,15.80
2023-05-11T17:08:54.651Z,15.90
2023-05-11T17:11:22.704Z,15.90
2023-05-11T17:13:51.965Z,15.90
2023-05-11T17:16:19.906Z,15.90
2023-05-11T17:18:48.020Z,15.90
2023-05-11T17:21:16.838Z,15.70
2023-05-11T17:23:45.004Z,15.60
2023-05-11T17:26:13.701Z,15.70
2023-05-11T17:28:41.725Z,15.60
2023-05-11T17:31:12.360Z,15.60
2023-05-11T17:33:41.649Z,15.60
2023-05-11T17:36:11.677Z,15.50
2023-05-11T17:38:39.613Z,15.50
2023-05-11T17:41:07.673Z,15.50
2023-05-11T17:43:36.418Z,15.50
2023-05-11T17:46:04.508Z,15.50
2023-05-11T17:48:33.813Z,15.50
2023-05-11T17:51:02.066Z,15.40
2023-05-11T17:53:29.889Z,15.50
2023-05-11T17:55:59.437Z,15.30
2023-05-11T17:58:27.598Z,15.40
2023-05-11T18:00:55.461Z,15.40
2023-05-11T18:03:23.381Z,15.30
2023-05-11T18:05:53.064Z,15.30
2023-05-11T18:08:20.883Z,15.20
2023-05-11T18:10:48.724Z,15.20
2023-05-11T18:13:17.626Z,15.20
2023-05-11T18:15:45.755Z,15.20
2023-05-11T18:18:13.751Z,15.20
2023-05-11T18:20:45.215Z,15.20
2023-05-11T18:23:15.064Z,15.10
2023-05-11T18:25:43.335Z,15.20
2023-05-11T18:28:11.228Z,15.10
2023-05-11T18:30:39.696Z,15.10
2023-05-11T18:33:08.494Z,15.10
2023-05-11T18:35:38.881Z,15.10
2023-05-11T18:38:07.116Z,15.10
2023-05-11T18:40:36.502Z,15.10
2023-05-11T18:43:11.809Z,15.20
2023-05-11T18:45:40.935Z,15.20
2023-05-11T18:48:08.945Z,15.20
2023-05-11T18:50:36.797Z,15.30
2023-05-11T18:53:04.624Z,15.30
2023-05-11T18:55:44.996Z,15.30
2023-05-11T18:58:20.235Z,15.30
2023-05-11T19:00:48.497Z,15.30
2023-05-11T19:03:16.564Z,15.30
2023-05-11T19:05:44.865Z,15.30
2023-05-11T19:08:13.113Z,15.30
2023-05-11T19:10:44.943Z,15.30
2023-05-11T19:13:13.644Z,15.20
2023-05-11T19:15:44.501Z,15.20
2023-05-11T19:18:12.339Z,15.20
2023-05-11T19:20:40.238Z,15.20
2023-05-11T19:23:08.114Z,15.20
2023-05-11T19:25:35.981Z,15.20
2023-05-11T19:28:03.814Z,15.10
2023-05-11T19:30:31.699Z,15.10
2023-05-11T19:33:00.931Z,15.10
2023-05-11T19:35:30.779Z,15.10
2023-05-11T19:37:58.965Z,15.20
2023-05-11T19:40:45.480Z,15.20
2023-05-11T19:43:14.264Z,15.20
2023-05-11T19:45:43.528Z,15.20
2023-05-11T19:48:13.371Z,15.20
2023-05-11T19:50:41.395Z,15.10
2023-05-11T19:53:09.258Z,15.10
2023-05-11T19:55:37.546Z,15.00
2023-05-11T19:58:06.773Z,15.00
2023-05-11T20:00:34.862Z,15.00
2023-05-11T20:03:03.376Z,15.00
2023-05-11T20:05:32.670Z,15.00
2023-05-11T20:08:01.195Z,15.00
2023-05-11T20:10:29.119Z,15.10
2023-05-11T20:12:58.058Z,15.10
2023-05-11T20:15:26.189Z,15.10
2023-05-11T20:18:04.309Z,15.00
2023-05-11T20:20:33.941Z,15.10
2023-05-11T20:23:02.373Z,15.10
2023-05-11T20:25:30.313Z,15.10
2023-05-11T20:27:58.161Z,15.10
2023-05-11T20:30:25.977Z,15.00
2023-05-11T20:35:25.206Z,15.00
2023-05-11T20:37:54.841Z,15.00
2023-05-11T20:40:22.701Z,15.00
2023-05-11T20:42:50.536Z,14.90
2023-05-11T20:45:18.812Z,14.90
2023-05-11T20:47:46.686Z,14.90
2023-05-11T20:50:15.776Z,15.00
2023-05-11T20:52:43.844Z,14.90
2023-05-11T20:55:13.007Z,14.90
2023-05-11T20:57:40.856Z,14.90
2023-05-11T21:00:11.244Z,14.80
2023-05-11T21:02:39.156Z,14.80
2023-05-11T21:05:07.714Z,14.80
2023-05-11T21:07:35.558Z,14.70
2023-05-11T21:10:03.375Z,14.70
2023-05-11T21:12:32.631Z,14.70
2023-05-11T21:15:00.572Z,14.60
2023-05-11T21:17:28.476Z,14.50
2023-05-11T21:19:56.353Z,14.50
2023-05-11T21:22:24.223Z,14.50
2023-05-11T21:24:52.062Z,14.40
2023-05-11T21:27:19.895Z,14.30
2023-05-11T21:29:50.738Z,14.40
2023-05-11T21:32:18.623Z,14.40
2023-05-11T21:34:46.468Z,14.50
2023-05-11T21:37:16.013Z,14.50
2023-05-11T21:39:44.003Z,14.50
2023-05-11T21:42:11.933Z,14.50
2023-05-11T21:44:39.888Z,14.50
2023-05-11T21:47:09.241Z,14.50
2023-05-11T21:49:37.055Z,14.40
2023-05-11T21:52:05.845Z,14.40
2023-05-11T21:54:33.689Z,14.40
2023-05-11T21:57:01.623Z,14.50
2023-05-11T21:59:29.471Z,14.50
2023-05-11T22:01:57.835Z,14.40
2023-05-11T22:04:27.423Z,14.40
2023-05-11T22:06:59.476Z,14.40
2023-05-11T22:09:28.944Z,14.40
2023-05-11T22:11:57.335Z,14.40
2023-05-11T22:14:25.203Z,14.50
2023-05-11T22:16:53.031Z,14.50
2023-05-11T22:19:20.967Z,14.40
2023-05-11T22:21:50.464Z,14.40
2023-05-11T22:24:18.295Z,14.30
2023-05-11T22:26:46.133Z,14.30
2023-05-11T22:29:14.070Z,14.20
2023-05-11T22:31:44.651Z,14.20
2023-05-11T22:34:13.955Z,14.20
2023-05-11T22:36:41.797Z,14.20
2023-05-11T22:39:11.911Z,14.10
2023-05-11T22:41:40.007Z,14.10
2023-05-11T22:44:07.878Z,14.10
2023-05-11T22:46:35.721Z,14.10
2023-05-11T22:49:03.760Z,14.10
2023-05-11T22:51:31.725Z,14.10
2023-05-11T22:53:59.565Z,14.20
2023-05-11T22:56:30.562Z,14.10
2023-05-11T22:58:59.810Z,14.10
2023-05-11T23:01:27.957Z,13.90
2023-05-11T23:03:56.019Z,13.90
2023-05-11T23:06:23.866Z,14.00
2023-05-11T23:08:51.739Z,14.00
2023-05-11T23:11:19.920Z,14.10
2023-05-11T23:13:49.067Z,14.10
2023-05-11T23:16:17.647Z,14.10
2023-05-11T23:18:45.946Z,14.10
2023-05-11T23:21:13.928Z,14.10
2023-05-11T23:23:42.890Z,14.10
2023-05-11T23:26:10.866Z,14.20
2023-05-11T23:28:38.685Z,14.20
2023-05-11T23:31:07.876Z,14.20
2023-05-11T23:33:35.754Z,14.20
2023-05-11T23:36:03.626Z,14.20
2023-05-11T23:38:32.730Z,14.20
2023-05-11T23:41:00.638Z,14.10
2023-05-11T23:43:28.814Z,14.10
2023-05-11T23:45:57.731Z,14.10
2023-05-11T23:48:26.941Z,14.10
2023-05-11T23:50:54.771Z,14.10
2023-05-11T23:53:22.658Z,14.00
2023-05-11T23:55:50.838Z,14.00
2023-05-11T23:58:18.642Z,14.00
